RYR612 LERS-EHEH
Flight info
| Callsign | RYR612 |
|---|---|
| Flight time | 2h 2m |
| Altitude | 30000 |
| Route | ARBEK T113 RUTIP DCT OKABI/N0412F360 DCT TOU DCT ADABI DCT BOKNO UN858 VANAD UN874 ARSAF DCT EGOZE DCT CMB DCT VEKIN DCT ADUTO N873 FERDI Y18 DENUT |
| Aircraft | B738/M-SDE2E3FGHIRWXY/LB1 |
Departure
| Time | 2026-04-28 16:55 |
|---|---|
| Airport | Reus Airport (LERS) |
Arrival
| Time | 2026-04-28 18:58 |
|---|---|
| Airport | Eindhoven Airport (EHEH) |
| Time | Latitude | Longitude | Altitude | Speed | Heading |
|---|---|---|---|---|---|
| 2026-04-28 16:24 | 41.14675 | 1.15624 | 241 ft | 0 kts | 339° |
| 2026-04-28 16:46 | 41.14670 | 1.15627 | 241 ft | 4 kts | 339° |
| 2026-04-28 16:46 | 41.14645 | 1.15640 | 241 ft | 4 kts | 339° |
| 2026-04-28 16:46 | 41.14625 | 1.15648 | 241 ft | 4 kts | 5° |
| 2026-04-28 16:46 | 41.14603 | 1.15635 | 241 ft | 4 kts | 54° |
| 2026-04-28 16:47 | 41.14593 | 1.15611 | 241 ft | 0 kts | 69° |
| 2026-04-28 16:49 | 41.14593 | 1.15612 | 241 ft | 0 kts | 69° |
| 2026-04-28 16:50 | 41.14594 | 1.15613 | 241 ft | 1 kts | 69° |
| 2026-04-28 16:50 | 41.14606 | 1.15655 | 241 ft | 12 kts | 68° |
| 2026-04-28 16:50 | 41.14653 | 1.15817 | 242 ft | 22 kts | 69° |
| 2026-04-28 16:50 | 41.14709 | 1.16007 | 242 ft | 22 kts | 69° |
| 2026-04-28 16:51 | 41.14763 | 1.16190 | 242 ft | 21 kts | 69° |
| 2026-04-28 16:51 | 41.14814 | 1.16368 | 242 ft | 20 kts | 69° |
| 2026-04-28 16:51 | 41.14865 | 1.16539 | 242 ft | 20 kts | 68° |
| 2026-04-28 16:51 | 41.14914 | 1.16706 | 242 ft | 19 kts | 69° |
| 2026-04-28 16:52 | 41.14961 | 1.16866 | 242 ft | 18 kts | 68° |
| 2026-04-28 16:52 | 41.15011 | 1.17040 | 242 ft | 22 kts | 69° |
| 2026-04-28 16:52 | 41.15068 | 1.17231 | 241 ft | 22 kts | 68° |
| 2026-04-28 16:52 | 41.15122 | 1.17416 | 241 ft | 21 kts | 69° |
| 2026-04-28 16:53 | 41.15173 | 1.17594 | 241 ft | 20 kts | 69° |
| 2026-04-28 16:53 | 41.15223 | 1.17765 | 241 ft | 20 kts | 68° |
| 2026-04-28 16:53 | 41.15273 | 1.17932 | 241 ft | 19 kts | 69° |
| 2026-04-28 16:53 | 41.15319 | 1.18093 | 241 ft | 18 kts | 69° |
| 2026-04-28 16:54 | 41.15337 | 1.18226 | 241 ft | 13 kts | 122° |
| 2026-04-28 16:54 | 41.15256 | 1.18278 | 241 ft | 13 kts | 157° |
| 2026-04-28 16:54 | 41.15191 | 1.18271 | 241 ft | 10 kts | 245° |
| 2026-04-28 16:54 | 41.15166 | 1.18183 | 241 ft | 13 kts | 249° |
| 2026-04-28 16:55 | 41.15073 | 1.17864 | 242 ft | 75 kts | 249° |
| 2026-04-28 16:55 | 41.14794 | 1.16910 | 244 ft | 143 kts | 249° |
| 2026-04-28 16:55 | 41.14410 | 1.15576 | 731 ft | 159 kts | 246° |
| 2026-04-28 16:55 | 41.13871 | 1.14284 | 1420 ft | 163 kts | 221° |
| 2026-04-28 16:56 | 41.12928 | 1.13332 | 2039 ft | 188 kts | 218° |
| 2026-04-28 16:56 | 41.12075 | 1.11810 | 2417 ft | 224 kts | 238° |
| 2026-04-28 16:56 | 41.11315 | 1.09872 | 2827 ft | 247 kts | 240° |
| 2026-04-28 16:56 | 41.10532 | 1.07732 | 3371 ft | 265 kts | 242° |
| 2026-04-28 16:57 | 41.09743 | 1.05500 | 4425 ft | 267 kts | 242° |
| 2026-04-28 16:57 | 41.08944 | 1.03300 | 5622 ft | 265 kts | 242° |
| 2026-04-28 16:57 | 41.08117 | 1.01087 | 6659 ft | 268 kts | 241° |
| 2026-04-28 16:57 | 41.07272 | 0.98875 | 7642 ft | 271 kts | 241° |
| 2026-04-28 16:58 | 41.06413 | 0.96642 | 8664 ft | 273 kts | 242° |
| 2026-04-28 16:58 | 41.05541 | 0.94395 | 9685 ft | 276 kts | 242° |
| 2026-04-28 16:58 | 41.04646 | 0.92098 | 10455 ft | 287 kts | 242° |
| 2026-04-28 16:58 | 41.03990 | 0.89501 | 10918 ft | 308 kts | 263° |
| 2026-04-28 16:59 | 41.04192 | 0.86645 | 11774 ft | 318 kts | 285° |
| 2026-04-28 16:59 | 41.05222 | 0.84036 | 12740 ft | 326 kts | 307° |
| 2026-04-28 16:59 | 41.07013 | 0.82147 | 13726 ft | 337 kts | 331° |
| 2026-04-28 16:59 | 41.09279 | 0.81207 | 14596 ft | 346 kts | 346° |
| 2026-04-28 17:00 | 41.11697 | 0.80812 | 15484 ft | 354 kts | 354° |
| 2026-04-28 17:00 | 41.14183 | 0.80750 | 16370 ft | 360 kts | 358° |
| 2026-04-28 17:00 | 41.16707 | 0.80906 | 17274 ft | 366 kts | 2° |
| 2026-04-28 17:00 | 41.19251 | 0.81354 | 18157 ft | 373 kts | 8° |
| 2026-04-28 17:01 | 41.21827 | 0.82139 | 18701 ft | 384 kts | 14° |
| 2026-04-28 17:01 | 41.24356 | 0.83293 | 19598 ft | 385 kts | 20° |
| 2026-04-28 17:01 | 41.26796 | 0.84778 | 20458 ft | 388 kts | 26° |
| 2026-04-28 17:01 | 41.29137 | 0.86601 | 21240 ft | 392 kts | 32° |
| 2026-04-28 17:02 | 41.31351 | 0.88764 | 21983 ft | 398 kts | 38° |
| 2026-04-28 17:02 | 41.32734 | 0.90377 | 22473 ft | 401 kts | 43° |
| 2026-04-28 17:02 | 41.35270 | 0.94037 | 23644 ft | 402 kts | 51° |
| 2026-04-28 17:02 | 41.36893 | 0.97047 | 24463 ft | 399 kts | 57° |
| 2026-04-28 17:03 | 41.39376 | 1.03624 | 25951 ft | 399 kts | 70° |
| 2026-04-28 17:03 | 41.40229 | 1.07139 | 26647 ft | 400 kts | 76° |
| 2026-04-28 17:03 | 41.40828 | 1.10747 | 27396 ft | 398 kts | 78° |
| 2026-04-28 17:04 | 41.43823 | 1.16651 | 28968 ft | 387 kts | 27° |
| 2026-04-28 17:04 | 41.46309 | 1.17832 | 29693 ft | 379 kts | 3° |
| 2026-04-28 17:05 | 41.51328 | 1.16414 | 29945 ft | 372 kts | 336° |
| 2026-04-28 17:05 | 41.53807 | 1.15429 | 29926 ft | 371 kts | 343° |
| 2026-04-28 17:05 | 41.56204 | 1.14308 | 29954 ft | 363 kts | 329° |
| 2026-04-28 17:06 | 41.61223 | 1.13633 | 29944 ft | 386 kts | 12° |
| 2026-04-28 17:06 | 41.68887 | 1.17259 | 29905 ft | 389 kts | 15° |
| 2026-04-28 17:07 | 41.74038 | 1.19311 | 29884 ft | 384 kts | 12° |
| 2026-04-28 17:07 | 41.79197 | 1.21085 | 29875 ft | 381 kts | 11° |
| 2026-04-28 17:08 | 41.84338 | 1.22772 | 29863 ft | 380 kts | 11° |
| 2026-04-28 17:08 | 41.89467 | 1.24448 | 29860 ft | 379 kts | 11° |
| 2026-04-28 17:09 | 41.94597 | 1.26131 | 29860 ft | 380 kts | 11° |
| 2026-04-28 17:09 | 41.99749 | 1.27826 | 29864 ft | 382 kts | 11° |
| 2026-04-28 17:10 | 42.04917 | 1.29529 | 29857 ft | 383 kts | 11° |
| 2026-04-28 17:10 | 42.10102 | 1.31242 | 29874 ft | 384 kts | 11° |
| 2026-04-28 17:11 | 42.15306 | 1.32961 | 29897 ft | 385 kts | 11° |
| 2026-04-28 17:11 | 42.20521 | 1.34677 | 29972 ft | 386 kts | 12° |
| 2026-04-28 17:12 | 42.25738 | 1.36398 | 29961 ft | 386 kts | 11° |
| 2026-04-28 17:12 | 42.30957 | 1.38117 | 29960 ft | 385 kts | 11° |
| 2026-04-28 17:13 | 42.36157 | 1.39837 | 29965 ft | 384 kts | 11° |
| 2026-04-28 17:13 | 42.41307 | 1.41544 | 29972 ft | 383 kts | 11° |
| 2026-04-28 17:14 | 42.46478 | 1.43259 | 29973 ft | 382 kts | 11° |
| 2026-04-28 17:14 | 42.51637 | 1.44997 | 29985 ft | 381 kts | 12° |
| 2026-04-28 17:15 | 42.56789 | 1.46757 | 29971 ft | 382 kts | 12° |
| 2026-04-28 17:15 | 42.61992 | 1.48164 | 29967 ft | 380 kts | 360° |
| 2026-04-28 17:16 | 42.67235 | 1.47637 | 29986 ft | 381 kts | 349° |
| 2026-04-28 17:16 | 42.69906 | 1.47173 | 30090 ft | 393 kts | 349° |
| 2026-04-28 17:16 | 42.72668 | 1.46685 | 30227 ft | 407 kts | 350° |
| 2026-04-28 17:17 | 42.75517 | 1.46191 | 30439 ft | 417 kts | 350° |
| 2026-04-28 17:17 | 42.78422 | 1.45700 | 30707 ft | 424 kts | 350° |
| 2026-04-28 17:17 | 42.81360 | 1.45215 | 31194 ft | 425 kts | 350° |
| 2026-04-28 17:17 | 42.84288 | 1.44740 | 31849 ft | 422 kts | 350° |
| 2026-04-28 17:18 | 42.87193 | 1.44272 | 32534 ft | 419 kts | 350° |
| 2026-04-28 17:18 | 42.90075 | 1.43808 | 33192 ft | 415 kts | 350° |
| 2026-04-28 17:18 | 42.92938 | 1.43346 | 33797 ft | 413 kts | 350° |
| 2026-04-28 17:18 | 42.95790 | 1.42884 | 34307 ft | 412 kts | 350° |
| 2026-04-28 17:19 | 42.98634 | 1.42422 | 34776 ft | 411 kts | 350° |
| 2026-04-28 17:19 | 43.01481 | 1.41958 | 35183 ft | 413 kts | 349° |
| 2026-04-28 17:19 | 43.04344 | 1.41492 | 35444 ft | 417 kts | 350° |
| 2026-04-28 17:19 | 43.07236 | 1.41018 | 35751 ft | 420 kts | 349° |
| 2026-04-28 17:20 | 43.10144 | 1.40542 | 35955 ft | 424 kts | 349° |
| 2026-04-28 17:20 | 43.12087 | 1.40224 | 35936 ft | 426 kts | 349° |
| 2026-04-28 17:20 | 43.18876 | 1.39120 | 35935 ft | 415 kts | 349° |
| 2026-04-28 17:21 | 43.24614 | 1.38181 | 35956 ft | 417 kts | 349° |
| 2026-04-28 17:22 | 43.33303 | 1.36752 | 35953 ft | 421 kts | 349° |
| 2026-04-28 17:22 | 43.39104 | 1.35797 | 35942 ft | 424 kts | 349° |
| 2026-04-28 17:23 | 43.47874 | 1.34353 | 35948 ft | 423 kts | 349° |
| 2026-04-28 17:23 | 43.53709 | 1.33388 | 35951 ft | 422 kts | 349° |
| 2026-04-28 17:24 | 43.59521 | 1.32425 | 35939 ft | 420 kts | 349° |
| 2026-04-28 17:24 | 43.65325 | 1.31462 | 35944 ft | 420 kts | 349° |
| 2026-04-28 17:25 | 43.73972 | 1.29624 | 35945 ft | 419 kts | 345° |
| 2026-04-28 17:26 | 43.79696 | 1.28084 | 35952 ft | 420 kts | 344° |
| 2026-04-28 17:26 | 43.85448 | 1.26548 | 35957 ft | 422 kts | 344° |
| 2026-04-28 17:27 | 43.91226 | 1.25034 | 35963 ft | 423 kts | 344° |
| 2026-04-28 17:27 | 43.97022 | 1.23528 | 35963 ft | 424 kts | 345° |
| 2026-04-28 17:28 | 44.01845 | 1.22276 | 35965 ft | 424 kts | 345° |
| 2026-04-28 17:28 | 44.10547 | 1.20012 | 35970 ft | 424 kts | 344° |
| 2026-04-28 17:29 | 44.16335 | 1.18502 | 35981 ft | 423 kts | 344° |
| 2026-04-28 17:30 | 44.24992 | 1.16237 | 35994 ft | 421 kts | 343° |
| 2026-04-28 17:30 | 44.33620 | 1.13972 | 35993 ft | 420 kts | 343° |
| 2026-04-28 17:31 | 44.42218 | 1.11708 | 36008 ft | 419 kts | 343° |
| 2026-04-28 17:32 | 44.50798 | 1.09443 | 35995 ft | 418 kts | 343° |
| 2026-04-28 17:32 | 44.56458 | 1.07945 | 35998 ft | 417 kts | 343° |
| 2026-04-28 17:33 | 44.62166 | 1.06430 | 36013 ft | 417 kts | 343° |
| 2026-04-28 17:33 | 44.66943 | 1.05160 | 35999 ft | 417 kts | 343° |
| 2026-04-28 17:34 | 44.73563 | 1.03398 | 35993 ft | 416 kts | 343° |
| 2026-04-28 17:34 | 44.79252 | 1.01880 | 35993 ft | 416 kts | 343° |
| 2026-04-28 17:35 | 44.84944 | 1.00357 | 35988 ft | 416 kts | 343° |
| 2026-04-28 17:35 | 44.90633 | 0.98833 | 35994 ft | 416 kts | 343° |
| 2026-04-28 17:36 | 44.96330 | 0.97303 | 35990 ft | 418 kts | 343° |
| 2026-04-28 17:36 | 45.02038 | 0.95768 | 35993 ft | 417 kts | 343° |
| 2026-04-28 17:37 | 45.07739 | 0.94232 | 35986 ft | 417 kts | 343° |
| 2026-04-28 17:37 | 45.13435 | 0.92693 | 35968 ft | 417 kts | 343° |
| 2026-04-28 17:38 | 45.19123 | 0.91155 | 35986 ft | 415 kts | 343° |
| 2026-04-28 17:38 | 45.24791 | 0.89619 | 35967 ft | 414 kts | 343° |
| 2026-04-28 17:39 | 45.30439 | 0.88083 | 35963 ft | 413 kts | 343° |
| 2026-04-28 17:40 | 45.38894 | 0.85779 | 35979 ft | 413 kts | 343° |
| 2026-04-28 17:40 | 45.44505 | 0.84245 | 35969 ft | 414 kts | 343° |
| 2026-04-28 17:41 | 45.50176 | 0.82692 | 35962 ft | 416 kts | 343° |
| 2026-04-28 17:41 | 45.55859 | 0.81133 | 35965 ft | 417 kts | 343° |
| 2026-04-28 17:42 | 45.61561 | 0.79567 | 35967 ft | 418 kts | 343° |
| 2026-04-28 17:42 | 45.67278 | 0.77993 | 35973 ft | 419 kts | 343° |
| 2026-04-28 17:43 | 45.73005 | 0.76413 | 35958 ft | 419 kts | 343° |
| 2026-04-28 17:43 | 45.78734 | 0.74829 | 35971 ft | 419 kts | 342° |
| 2026-04-28 17:44 | 45.84457 | 0.73242 | 35952 ft | 419 kts | 342° |
| 2026-04-28 17:44 | 45.90172 | 0.71656 | 35961 ft | 418 kts | 342° |
| 2026-04-28 17:45 | 45.95877 | 0.70069 | 35959 ft | 417 kts | 342° |
| 2026-04-28 17:45 | 46.01575 | 0.68479 | 35972 ft | 417 kts | 342° |
| 2026-04-28 17:46 | 46.07273 | 0.66887 | 35958 ft | 417 kts | 342° |
| 2026-04-28 17:46 | 46.12967 | 0.65293 | 35969 ft | 417 kts | 342° |
| 2026-04-28 17:47 | 46.18659 | 0.63695 | 35980 ft | 417 kts | 342° |
| 2026-04-28 17:47 | 46.24362 | 0.62090 | 35969 ft | 417 kts | 342° |
| 2026-04-28 17:48 | 46.30061 | 0.60484 | 35961 ft | 418 kts | 342° |
| 2026-04-28 17:48 | 46.35764 | 0.58874 | 35972 ft | 418 kts | 342° |
| 2026-04-28 17:49 | 46.41469 | 0.57259 | 35970 ft | 418 kts | 342° |
| 2026-04-28 17:49 | 46.47135 | 0.55651 | 35967 ft | 418 kts | 342° |
| 2026-04-28 17:50 | 46.52838 | 0.54032 | 35965 ft | 418 kts | 343° |
| 2026-04-28 17:50 | 46.58715 | 0.53834 | 35981 ft | 432 kts | 4° |
| 2026-04-28 17:51 | 46.64625 | 0.55722 | 35968 ft | 435 kts | 8° |
| 2026-04-28 17:51 | 46.70511 | 0.57788 | 35973 ft | 435 kts | 8° |
| 2026-04-28 17:52 | 46.76406 | 0.59789 | 35973 ft | 435 kts | 8° |
| 2026-04-28 17:52 | 46.85248 | 0.62722 | 35990 ft | 434 kts | 7° |
| 2026-04-28 17:53 | 46.91149 | 0.64680 | 35988 ft | 435 kts | 7° |
| 2026-04-28 17:53 | 46.97043 | 0.66642 | 36001 ft | 435 kts | 7° |
| 2026-04-28 17:54 | 47.02943 | 0.68612 | 36000 ft | 435 kts | 8° |
| 2026-04-28 17:54 | 47.08876 | 0.69855 | 36007 ft | 428 kts | 358° |
| 2026-04-28 17:55 | 47.14821 | 0.70364 | 36002 ft | 428 kts | 357° |
| 2026-04-28 17:55 | 47.20775 | 0.70890 | 36010 ft | 429 kts | 358° |
| 2026-04-28 17:56 | 47.26736 | 0.71491 | 36001 ft | 430 kts | 358° |
| 2026-04-28 17:56 | 47.32703 | 0.72119 | 35996 ft | 430 kts | 359° |
| 2026-04-28 17:57 | 47.38632 | 0.72744 | 36010 ft | 430 kts | 359° |
| 2026-04-28 17:57 | 47.44604 | 0.73373 | 35998 ft | 430 kts | 359° |
| 2026-04-28 17:58 | 47.50577 | 0.74306 | 35985 ft | 436 kts | 9° |
| 2026-04-28 17:58 | 47.56387 | 0.77052 | 35997 ft | 439 kts | 15° |
| 2026-04-28 17:59 | 47.62159 | 0.80015 | 36015 ft | 439 kts | 15° |
| 2026-04-28 17:59 | 47.67946 | 0.82911 | 36010 ft | 438 kts | 15° |
| 2026-04-28 18:00 | 47.73727 | 0.85765 | 36018 ft | 437 kts | 14° |
| 2026-04-28 18:00 | 47.79499 | 0.88616 | 36033 ft | 437 kts | 14° |
| 2026-04-28 18:01 | 47.85285 | 0.91488 | 36034 ft | 438 kts | 15° |
| 2026-04-28 18:01 | 47.91061 | 0.94403 | 36028 ft | 438 kts | 15° |
| 2026-04-28 18:02 | 47.96832 | 0.97331 | 36026 ft | 438 kts | 15° |
| 2026-04-28 18:02 | 48.02606 | 1.00264 | 36038 ft | 438 kts | 16° |
| 2026-04-28 18:03 | 48.08368 | 1.03194 | 36030 ft | 438 kts | 16° |
| 2026-04-28 18:03 | 48.14125 | 1.06129 | 36034 ft | 437 kts | 16° |
| 2026-04-28 18:04 | 48.19884 | 1.09071 | 36035 ft | 437 kts | 16° |
| 2026-04-28 18:04 | 48.25634 | 1.12006 | 36044 ft | 436 kts | 17° |
| 2026-04-28 18:05 | 48.30398 | 1.14432 | 36033 ft | 435 kts | 17° |
| 2026-04-28 18:05 | 48.37085 | 1.17846 | 36032 ft | 433 kts | 17° |
| 2026-04-28 18:06 | 48.42780 | 1.20763 | 36043 ft | 432 kts | 17° |
| 2026-04-28 18:06 | 48.48457 | 1.23683 | 36056 ft | 431 kts | 18° |
| 2026-04-28 18:07 | 48.54127 | 1.26596 | 36043 ft | 430 kts | 18° |
| 2026-04-28 18:07 | 48.59798 | 1.29477 | 36050 ft | 430 kts | 17° |
| 2026-04-28 18:08 | 48.65469 | 1.32327 | 36053 ft | 430 kts | 17° |
| 2026-04-28 18:08 | 48.71152 | 1.35192 | 36052 ft | 431 kts | 17° |
| 2026-04-28 18:09 | 48.76814 | 1.38060 | 36064 ft | 432 kts | 18° |
| 2026-04-28 18:09 | 48.82511 | 1.40953 | 36061 ft | 433 kts | 18° |
| 2026-04-28 18:10 | 48.88226 | 1.43863 | 36064 ft | 433 kts | 18° |
| 2026-04-28 18:10 | 48.93933 | 1.46797 | 36062 ft | 433 kts | 20° |
| 2026-04-28 18:11 | 48.96635 | 1.48800 | 36062 ft | 433 kts | 32° |
| 2026-04-28 18:11 | 48.99089 | 1.51459 | 36068 ft | 432 kts | 41° |
| 2026-04-28 18:11 | 49.03218 | 1.58076 | 36067 ft | 431 kts | 50° |
| 2026-04-28 18:12 | 49.07151 | 1.64972 | 36075 ft | 431 kts | 50° |
| 2026-04-28 18:12 | 49.11081 | 1.71841 | 36066 ft | 429 kts | 50° |
| 2026-04-28 18:13 | 49.15039 | 1.78629 | 36044 ft | 426 kts | 49° |
| 2026-04-28 18:13 | 49.18968 | 1.85393 | 36073 ft | 426 kts | 50° |
| 2026-04-28 18:14 | 49.22898 | 1.92188 | 36077 ft | 427 kts | 50° |
| 2026-04-28 18:14 | 49.26838 | 1.99018 | 36083 ft | 429 kts | 50° |
| 2026-04-28 18:15 | 49.30788 | 2.05883 | 36088 ft | 430 kts | 50° |
| 2026-04-28 18:15 | 49.34742 | 2.12769 | 36070 ft | 430 kts | 50° |
| 2026-04-28 18:16 | 49.38673 | 2.19637 | 36067 ft | 428 kts | 50° |
| 2026-04-28 18:16 | 49.41954 | 2.25384 | 36064 ft | 426 kts | 50° |
| 2026-04-28 18:17 | 49.45827 | 2.32187 | 36075 ft | 426 kts | 50° |
| 2026-04-28 18:17 | 49.49727 | 2.39054 | 36082 ft | 427 kts | 50° |
| 2026-04-28 18:18 | 49.53632 | 2.45949 | 36086 ft | 427 kts | 50° |
| 2026-04-28 18:18 | 49.57332 | 2.51051 | 36078 ft | 428 kts | 33° |
| 2026-04-28 18:19 | 49.63199 | 2.56683 | 36088 ft | 427 kts | 32° |
| 2026-04-28 18:19 | 49.68254 | 2.61488 | 36098 ft | 426 kts | 32° |
| 2026-04-28 18:20 | 49.73279 | 2.66342 | 36096 ft | 425 kts | 33° |
| 2026-04-28 18:20 | 49.78278 | 2.71209 | 36082 ft | 424 kts | 33° |
| 2026-04-28 18:21 | 49.83252 | 2.76093 | 36089 ft | 423 kts | 33° |
| 2026-04-28 18:21 | 49.88225 | 2.80959 | 36100 ft | 423 kts | 33° |
| 2026-04-28 18:22 | 49.93195 | 2.85837 | 36108 ft | 423 kts | 33° |
| 2026-04-28 18:22 | 49.98127 | 2.90700 | 36117 ft | 423 kts | 33° |
| 2026-04-28 18:23 | 50.03125 | 2.95640 | 36107 ft | 423 kts | 33° |
| 2026-04-28 18:23 | 50.08087 | 3.00555 | 36112 ft | 423 kts | 33° |
| 2026-04-28 18:24 | 50.12205 | 3.04642 | 36118 ft | 422 kts | 33° |
| 2026-04-28 18:24 | 50.17961 | 3.10370 | 36119 ft | 421 kts | 34° |
| 2026-04-28 18:25 | 50.20473 | 3.12700 | 35868 ft | 421 kts | 27° |
| 2026-04-28 18:25 | 50.23220 | 3.14374 | 35218 ft | 425 kts | 18° |
| 2026-04-28 18:25 | 50.26050 | 3.15759 | 34628 ft | 428 kts | 17° |
| 2026-04-28 18:26 | 50.31759 | 3.18459 | 33448 ft | 430 kts | 17° |
| 2026-04-28 18:26 | 50.34614 | 3.19841 | 32902 ft | 428 kts | 17° |
| 2026-04-28 18:26 | 50.37447 | 3.21240 | 32473 ft | 424 kts | 18° |
| 2026-04-28 18:26 | 50.40242 | 3.22646 | 32061 ft | 419 kts | 19° |
| 2026-04-28 18:27 | 50.43005 | 3.24046 | 31623 ft | 415 kts | 18° |
| 2026-04-28 18:27 | 50.45742 | 3.25438 | 31215 ft | 412 kts | 18° |
| 2026-04-28 18:27 | 50.48448 | 3.26826 | 30815 ft | 407 kts | 18° |
| 2026-04-28 18:27 | 50.51131 | 3.28193 | 30424 ft | 404 kts | 18° |
| 2026-04-28 18:28 | 50.53794 | 3.29536 | 29988 ft | 400 kts | 18° |
| 2026-04-28 18:28 | 50.56430 | 3.30878 | 29519 ft | 396 kts | 18° |
| 2026-04-28 18:28 | 50.59033 | 3.32213 | 29105 ft | 391 kts | 18° |
| 2026-04-28 18:28 | 50.61598 | 3.33529 | 28681 ft | 385 kts | 21° |
| 2026-04-28 18:29 | 50.64128 | 3.34833 | 28290 ft | 380 kts | 20° |
| 2026-04-28 18:29 | 50.66615 | 3.36107 | 28005 ft | 372 kts | 20° |
| 2026-04-28 18:29 | 50.69082 | 3.37381 | 27483 ft | 372 kts | 20° |
| 2026-04-28 18:29 | 50.71529 | 3.38643 | 27066 ft | 369 kts | 20° |
| 2026-04-28 18:30 | 50.73956 | 3.39893 | 26657 ft | 366 kts | 21° |
| 2026-04-28 18:30 | 50.75556 | 3.40715 | 26386 ft | 363 kts | 21° |
| 2026-04-28 18:30 | 50.78753 | 3.42372 | 25855 ft | 360 kts | 20° |
| 2026-04-28 18:30 | 50.81123 | 3.43597 | 25460 ft | 357 kts | 21° |
| 2026-04-28 18:31 | 50.83479 | 3.44817 | 25066 ft | 355 kts | 21° |
| 2026-04-28 18:31 | 50.85816 | 3.46030 | 24680 ft | 352 kts | 22° |
| 2026-04-28 18:31 | 50.88137 | 3.47235 | 24300 ft | 350 kts | 21° |
| 2026-04-28 18:31 | 50.90443 | 3.48432 | 23917 ft | 348 kts | 21° |
| 2026-04-28 18:32 | 50.92740 | 3.49625 | 23505 ft | 346 kts | 22° |
| 2026-04-28 18:32 | 50.95016 | 3.50814 | 23065 ft | 344 kts | 21° |
| 2026-04-28 18:32 | 50.97281 | 3.51994 | 22651 ft | 341 kts | 21° |
| 2026-04-28 18:32 | 50.99528 | 3.53162 | 22264 ft | 338 kts | 21° |
| 2026-04-28 18:33 | 51.01754 | 3.54323 | 21884 ft | 335 kts | 21° |
| 2026-04-28 18:33 | 51.03958 | 3.55474 | 21508 ft | 333 kts | 22° |
| 2026-04-28 18:33 | 51.06126 | 3.56610 | 21137 ft | 331 kts | 21° |
| 2026-04-28 18:33 | 51.08304 | 3.57753 | 20768 ft | 329 kts | 21° |
| 2026-04-28 18:34 | 51.10468 | 3.58884 | 20401 ft | 327 kts | 22° |
| 2026-04-28 18:34 | 51.12624 | 3.60019 | 20036 ft | 325 kts | 21° |
| 2026-04-28 18:34 | 51.14770 | 3.61147 | 19669 ft | 324 kts | 21° |
| 2026-04-28 18:34 | 51.16931 | 3.62284 | 19298 ft | 323 kts | 21° |
| 2026-04-28 18:35 | 51.19029 | 3.63389 | 18949 ft | 321 kts | 21° |
| 2026-04-28 18:35 | 51.21151 | 3.64507 | 18586 ft | 320 kts | 21° |
| 2026-04-28 18:35 | 51.23267 | 3.65645 | 18115 ft | 321 kts | 25° |
| 2026-04-28 18:35 | 51.25167 | 3.67348 | 17966 ft | 310 kts | 38° |
| 2026-04-28 18:36 | 51.26905 | 3.69373 | 17759 ft | 310 kts | 40° |
| 2026-04-28 18:36 | 51.28649 | 3.71445 | 17523 ft | 311 kts | 41° |
| 2026-04-28 18:36 | 51.30117 | 3.73896 | 17301 ft | 304 kts | 59° |
| 2026-04-28 18:36 | 51.31009 | 3.76907 | 17050 ft | 298 kts | 69° |
| 2026-04-28 18:37 | 51.31770 | 3.79968 | 16787 ft | 296 kts | 69° |
| 2026-04-28 18:37 | 51.32537 | 3.83019 | 16527 ft | 295 kts | 69° |
| 2026-04-28 18:37 | 51.33301 | 3.86047 | 16265 ft | 293 kts | 69° |
| 2026-04-28 18:37 | 51.34060 | 3.89063 | 16005 ft | 292 kts | 69° |
| 2026-04-28 18:38 | 51.34819 | 3.92082 | 15765 ft | 293 kts | 69° |
| 2026-04-28 18:38 | 51.35577 | 3.95108 | 15513 ft | 293 kts | 69° |
| 2026-04-28 18:38 | 51.36334 | 3.98130 | 15265 ft | 293 kts | 69° |
| 2026-04-28 18:38 | 51.37091 | 4.01160 | 15022 ft | 293 kts | 69° |
| 2026-04-28 18:39 | 51.37845 | 4.04180 | 14781 ft | 291 kts | 69° |
| 2026-04-28 18:39 | 51.38590 | 4.07174 | 14539 ft | 289 kts | 69° |
| 2026-04-28 18:39 | 51.39330 | 4.10148 | 14299 ft | 286 kts | 69° |
| 2026-04-28 18:39 | 51.40063 | 4.13098 | 14060 ft | 284 kts | 69° |
| 2026-04-28 18:40 | 51.40792 | 4.16034 | 13797 ft | 283 kts | 69° |
| 2026-04-28 18:40 | 51.41517 | 4.18962 | 13539 ft | 283 kts | 69° |
| 2026-04-28 18:40 | 51.42239 | 4.21892 | 13273 ft | 282 kts | 69° |
| 2026-04-28 18:40 | 51.42961 | 4.24819 | 13009 ft | 283 kts | 69° |
| 2026-04-28 18:41 | 51.43687 | 4.27754 | 12756 ft | 283 kts | 69° |
| 2026-04-28 18:41 | 51.44421 | 4.30666 | 12490 ft | 281 kts | 69° |
| 2026-04-28 18:41 | 51.45136 | 4.33526 | 12236 ft | 279 kts | 69° |
| 2026-04-28 18:41 | 51.45843 | 4.36413 | 11979 ft | 277 kts | 70° |
| 2026-04-28 18:42 | 51.46539 | 4.39270 | 11721 ft | 274 kts | 69° |
| 2026-04-28 18:42 | 51.47231 | 4.42113 | 11459 ft | 273 kts | 69° |
| 2026-04-28 18:42 | 51.47919 | 4.44940 | 11236 ft | 271 kts | 70° |
| 2026-04-28 18:42 | 51.48604 | 4.47753 | 10978 ft | 270 kts | 70° |
| 2026-04-28 18:43 | 51.49288 | 4.50560 | 10720 ft | 270 kts | 70° |
| 2026-04-28 18:43 | 51.49967 | 4.53350 | 10485 ft | 268 kts | 70° |
| 2026-04-28 18:43 | 51.50644 | 4.56129 | 10238 ft | 267 kts | 70° |
| 2026-04-28 18:43 | 51.51316 | 4.58897 | 9982 ft | 266 kts | 70° |
| 2026-04-28 18:44 | 51.51986 | 4.61653 | 9720 ft | 265 kts | 70° |
| 2026-04-28 18:44 | 51.53315 | 4.67137 | 9200 ft | 263 kts | 70° |
| 2026-04-28 18:44 | 51.53976 | 4.69862 | 8963 ft | 262 kts | 70° |
| 2026-04-28 18:45 | 51.54633 | 4.72579 | 8707 ft | 260 kts | 70° |
| 2026-04-28 18:45 | 51.55286 | 4.75286 | 8450 ft | 259 kts | 70° |
| 2026-04-28 18:45 | 51.55936 | 4.77984 | 8202 ft | 258 kts | 70° |
| 2026-04-28 18:45 | 51.56581 | 4.80661 | 7954 ft | 257 kts | 70° |
| 2026-04-28 18:46 | 51.57224 | 4.83337 | 7698 ft | 256 kts | 70° |
| 2026-04-28 18:46 | 51.57862 | 4.85994 | 7452 ft | 254 kts | 70° |
| 2026-04-28 18:46 | 51.58496 | 4.88635 | 7275 ft | 251 kts | 70° |
| 2026-04-28 18:46 | 51.59132 | 4.91290 | 7226 ft | 257 kts | 70° |
| 2026-04-28 18:47 | 51.59776 | 4.93982 | 7221 ft | 256 kts | 70° |
| 2026-04-28 18:47 | 51.60410 | 4.96634 | 7206 ft | 252 kts | 70° |
| 2026-04-28 18:47 | 51.61036 | 4.99250 | 7205 ft | 250 kts | 70° |
| 2026-04-28 18:47 | 51.61662 | 5.01874 | 7214 ft | 253 kts | 70° |
| 2026-04-28 18:48 | 51.62292 | 5.04521 | 7220 ft | 254 kts | 70° |
| 2026-04-28 18:48 | 51.62925 | 5.07180 | 7215 ft | 254 kts | 70° |
| 2026-04-28 18:48 | 51.63514 | 5.09861 | 7205 ft | 253 kts | 79° |
| 2026-04-28 18:48 | 51.63521 | 5.12673 | 7082 ft | 255 kts | 98° |
| 2026-04-28 18:49 | 51.63082 | 5.15431 | 6806 ft | 255 kts | 111° |
| 2026-04-28 18:49 | 51.62801 | 5.16292 | 6649 ft | 259 kts | 122° |
| 2026-04-28 18:49 | 51.60372 | 5.18998 | 6179 ft | 262 kts | 160° |
| 2026-04-28 18:49 | 51.58556 | 5.19256 | 5944 ft | 267 kts | 182° |
| 2026-04-28 18:50 | 51.56719 | 5.18761 | 5718 ft | 269 kts | 186° |
| 2026-04-28 18:50 | 51.54874 | 5.18208 | 5479 ft | 270 kts | 186° |
| 2026-04-28 18:50 | 51.53021 | 5.17663 | 5235 ft | 271 kts | 186° |
| 2026-04-28 18:50 | 51.51165 | 5.17125 | 5006 ft | 271 kts | 186° |
| 2026-04-28 18:51 | 51.49307 | 5.16598 | 4748 ft | 269 kts | 185° |
| 2026-04-28 18:51 | 51.47484 | 5.16087 | 4503 ft | 264 kts | 185° |
| 2026-04-28 18:51 | 51.45691 | 5.15587 | 4295 ft | 259 kts | 185° |
| 2026-04-28 18:51 | 51.43934 | 5.15099 | 4057 ft | 254 kts | 185° |
| 2026-04-28 18:52 | 51.42210 | 5.14620 | 3841 ft | 250 kts | 184° |
| 2026-04-28 18:52 | 51.40517 | 5.14148 | 3626 ft | 244 kts | 184° |
| 2026-04-28 18:52 | 51.38884 | 5.13986 | 3431 ft | 225 kts | 162° |
| 2026-04-28 18:52 | 51.37574 | 5.15017 | 3231 ft | 201 kts | 136° |
| 2026-04-28 18:53 | 51.36635 | 5.16528 | 3048 ft | 183 kts | 119° |
| 2026-04-28 18:53 | 51.35921 | 5.18143 | 2891 ft | 173 kts | 119° |
| 2026-04-28 18:53 | 51.35232 | 5.19673 | 2757 ft | 166 kts | 120° |
| 2026-04-28 18:53 | 51.34574 | 5.21123 | 2628 ft | 157 kts | 119° |
| 2026-04-28 18:54 | 51.33962 | 5.22575 | 2509 ft | 156 kts | 108° |
| 2026-04-28 18:54 | 51.34011 | 5.24162 | 2363 ft | 146 kts | 57° |
| 2026-04-28 18:54 | 51.34701 | 5.25366 | 2251 ft | 148 kts | 51° |
| 2026-04-28 18:54 | 51.35447 | 5.26497 | 2163 ft | 146 kts | 46° |
| 2026-04-28 18:55 | 51.36232 | 5.27524 | 1999 ft | 142 kts | 43° |
| 2026-04-28 18:55 | 51.36742 | 5.28126 | 1874 ft | 133 kts | 42° |
| 2026-04-28 18:55 | 51.37691 | 5.29207 | 1642 ft | 116 kts | 41° |
| 2026-04-28 18:55 | 51.38325 | 5.29921 | 1489 ft | 109 kts | 40° |
| 2026-04-28 18:56 | 51.38937 | 5.30613 | 1355 ft | 109 kts | 40° |
| 2026-04-28 18:56 | 51.39552 | 5.31301 | 1210 ft | 110 kts | 40° |
| 2026-04-28 18:56 | 51.40201 | 5.31998 | 1052 ft | 114 kts | 40° |
| 2026-04-28 18:56 | 51.40858 | 5.32786 | 899 ft | 118 kts | 41° |
| 2026-04-28 18:57 | 51.41502 | 5.33499 | 732 ft | 114 kts | 37° |
| 2026-04-28 18:57 | 51.42160 | 5.34232 | 577 ft | 115 kts | 39° |
| 2026-04-28 18:57 | 51.42826 | 5.34986 | 403 ft | 119 kts | 39° |
| 2026-04-28 18:57 | 51.43510 | 5.35756 | 245 ft | 121 kts | 37° |
| 2026-04-28 18:58 | 51.44187 | 5.36518 | 91 ft | 115 kts | 38° |
| 2026-04-28 18:58 | 51.44769 | 5.37176 | 72 ft | 85 kts | 35° |
| 2026-04-28 18:58 | 51.45132 | 5.37584 | 66 ft | 46 kts | 35° |
| 2026-04-28 18:58 | 51.45374 | 5.37856 | 77 ft | 39 kts | 35° |
| 2026-04-28 18:59 | 51.45578 | 5.38084 | 70 ft | 34 kts | 35° |
| 2026-04-28 18:59 | 51.45756 | 5.38282 | 75 ft | 22 kts | 34° |
| 2026-04-28 18:59 | 51.45876 | 5.38421 | 76 ft | 20 kts | 36° |
| 2026-04-28 18:59 | 51.45891 | 5.38552 | 70 ft | 14 kts | 126° |
| 2026-04-28 19:00 | 51.45838 | 5.38673 | 71 ft | 12 kts | 124° |
| 2026-04-28 19:00 | 51.45822 | 5.38711 | 74 ft | 0 kts | 124° |
| 2026-04-28 19:03 | 51.45817 | 5.38723 | 74 ft | 7 kts | 124° |
| 2026-04-28 19:03 | 51.45756 | 5.38793 | 73 ft | 13 kts | 194° |
| 2026-04-28 19:04 | 51.45685 | 5.38716 | 70 ft | 13 kts | 216° |
| 2026-04-28 19:04 | 51.45626 | 5.38659 | 73 ft | 5 kts | 177° |
| 2026-04-28 19:04 | 51.45600 | 5.38703 | 74 ft | 6 kts | 121° |
| 2026-04-28 19:04 | 51.45585 | 5.38737 | 71 ft | 2 kts | 125° |
| 2026-04-28 19:05 | 51.45581 | 5.38747 | 73 ft | 0 kts | 124° |